Terminal Aerodrome Forecast
Issued by NWS Greer, SC

Home | Current Version | Previous Version | Text Only | Print | Product List | Glossary On
Versions: 1 2 3 4 5 6 7 8 9 10 11 12 13 14 15 16 17 18
000
FTUS42 KGSP 290104 AAA
TAFAVL
TAF AMD
KAVL 290104Z 2901/2924 21007KT P6SM SCT050
      TEMPO 2901/2904 VRB10G17KT 5SM -TSRA OVC050CB
     FM290400 32005KT P6SM BKN045
     FM290900 33003KT 4SM BR BKN020
     FM291300 33008KT P6SM SCT070 BKN200 PROB30 2918/2924 4SM -TSRA
      OVC040CB=

USA.gov is the U.S. government's official web portal to all federal, state and local government web resources and services.